createdAt,value
2018-01-19T00:00:16.423Z,7.37
2018-01-19T00:02:44.452Z,7.03
2018-01-19T00:05:12.504Z,8.93
2018-01-19T00:07:40.558Z,8.57
2018-01-19T00:10:09.375Z,8.02
2018-01-19T00:12:37.419Z,8.05
2018-01-19T00:15:06.229Z,7.80
2018-01-19T00:17:34.290Z,8.48
2018-01-19T00:20:02.317Z,6.97
2018-01-19T00:22:42.239Z,6.53
2018-01-19T00:25:10.296Z,6.45
2018-01-19T00:27:38.338Z,7.47
2018-01-19T00:30:07.175Z,6.97
2018-01-19T00:32:35.232Z,7.72
2018-01-19T00:35:03.306Z,7.00
2018-01-19T00:37:31.351Z,6.62
2018-01-19T00:39:59.411Z,6.30
2018-01-19T00:42:28.200Z,6.43
2018-01-19T00:44:57.035Z,6.28
2018-01-19T00:47:25.088Z,6.68
2018-01-19T00:49:53.121Z,7.72
2018-01-19T00:52:21.933Z,6.68
2018-01-19T00:54:49.999Z,7.03
2018-01-19T00:57:18.013Z,6.82
2018-01-19T00:59:46.068Z,6.90
2018-01-19T01:02:14.121Z,6.50
2018-01-19T01:04:42.171Z,6.43
2018-01-19T01:07:10.964Z,6.62
2018-01-19T01:09:39.775Z,6.07
2018-01-19T01:12:07.820Z,5.30
2018-01-19T01:14:36.707Z,5.50
2018-01-19T01:17:05.521Z,5.60
2018-01-19T01:19:33.569Z,5.35
2018-01-19T01:22:02.368Z,4.45
2018-01-19T01:24:30.386Z,5.50
2018-01-19T01:26:58.432Z,5.47
2018-01-19T01:29:26.461Z,5.65
2018-01-19T01:31:54.584Z,5.97
2018-01-19T01:34:22.604Z,6.00
2018-01-19T01:36:51.396Z,6.10
2018-01-19T01:39:20.212Z,4.85
2018-01-19T01:41:48.246Z,5.97
2018-01-19T01:44:17.024Z,6.15
2018-01-19T01:46:45.071Z,5.53
2018-01-19T01:49:13.136Z,4.57
2018-01-19T01:51:41.148Z,7.30
2018-01-19T01:54:09.954Z,6.12
2018-01-19T01:56:37.973Z,5.35
2018-01-19T01:59:06.012Z,6.72
2018-01-19T02:01:34.040Z,5.70
2018-01-19T02:04:03.109Z,6.95
2018-01-19T02:06:31.130Z,6.55
2018-01-19T02:08:59.171Z,6.25
2018-01-19T02:11:27.259Z,6.00
2018-01-19T02:13:56.091Z,6.80
2018-01-19T02:16:24.120Z,5.68
2018-01-19T02:18:52.919Z,6.53
2018-01-19T02:21:20.944Z,6.35
2018-01-19T02:23:48.984Z,6.93
2018-01-19T02:26:17.028Z,5.60
2018-01-19T02:28:45.061Z,6.35
2018-01-19T02:31:13.123Z,6.72
2018-01-19T02:33:41.196Z,6.78
2018-01-19T02:36:09.242Z,6.43
2018-01-19T02:38:37.299Z,5.95
2018-01-19T02:41:05.324Z,6.85
2018-01-19T02:43:33.367Z,7.18
2018-01-19T02:46:01.419Z,7.18
2018-01-19T02:48:29.489Z,8.23
2018-01-19T02:50:57.544Z,8.55
2018-01-19T02:53:25.576Z,8.27
2018-01-19T02:55:53.593Z,7.80
2018-01-19T02:58:21.627Z,8.50
2018-01-19T03:00:50.484Z,7.50
2018-01-19T03:03:18.528Z,8.45
2018-01-19T03:05:46.584Z,8.07
2018-01-19T03:08:14.613Z,8.32
2018-01-19T03:10:42.660Z,7.85
2018-01-19T03:13:10.718Z,9.45
2018-01-19T03:15:38.761Z,7.65
2018-01-19T03:18:06.848Z,9.40
2018-01-19T03:20:34.882Z,8.75
2018-01-19T03:23:03.711Z,8.70
2018-01-19T03:25:31.747Z,8.20
2018-01-19T03:28:00.543Z,7.90
2018-01-19T03:30:28.580Z,9.38
2018-01-19T03:32:56.635Z,9.50
2018-01-19T03:35:24.720Z,11.27
2018-01-19T03:37:52.770Z,10.38
2018-01-19T03:40:20.808Z,10.60
2018-01-19T03:42:48.980Z,9.95
2018-01-19T03:45:16.988Z,9.65
2018-01-19T03:47:45.049Z,8.95
2018-01-19T03:50:13.837Z,8.70
2018-01-19T03:52:41.997Z,8.40
2018-01-19T03:55:10.043Z,7.90
2018-01-19T03:57:38.064Z,7.60
2018-01-19T04:00:06.119Z,7.20
2018-01-19T04:02:34.176Z,5.30
2018-01-19T04:05:02.209Z,5.10
2018-01-19T04:07:30.996Z,5.20
2018-01-19T04:09:59.789Z,5.43
2018-01-19T04:12:27.874Z,4.90
2018-01-19T04:14:55.888Z,5.07
2018-01-19T04:17:23.938Z,4.75
2018-01-19T04:19:51.971Z,5.00
2018-01-19T04:22:20.747Z,4.40
2018-01-19T04:24:48.791Z,5.25
2018-01-19T04:27:16.857Z,5.28
2018-01-19T04:29:44.893Z,4.72
2018-01-19T04:32:12.914Z,4.68
2018-01-19T04:34:41.040Z,4.75
2018-01-19T04:37:09.119Z,4.25
2018-01-19T04:39:37.233Z,4.70
2018-01-19T04:42:05.284Z,4.57
2018-01-19T04:44:33.319Z,4.87
2018-01-19T04:47:01.337Z,4.60
2018-01-19T04:49:29.381Z,5.70
2018-01-19T04:51:57.400Z,4.32
2018-01-19T04:54:26.180Z,3.80
2018-01-19T04:56:54.212Z,5.25
2018-01-19T04:59:22.256Z,4.47
2018-01-19T05:01:50.289Z,4.47
2018-01-19T05:04:18.316Z,5.85
2018-01-19T05:06:46.365Z,4.55
2018-01-19T05:09:14.407Z,4.80
2018-01-19T05:11:43.220Z,4.28
2018-01-19T05:14:11.308Z,4.47
2018-01-19T05:16:39.340Z,4.32
2018-01-19T05:19:08.144Z,3.80
2018-01-19T05:21:36.189Z,4.87
2018-01-19T05:24:04.232Z,6.00
2018-01-19T05:26:32.271Z,4.97
2018-01-19T05:29:00.316Z,4.95
2018-01-19T05:31:29.120Z,5.32
2018-01-19T05:33:57.185Z,4.93
2018-01-19T05:36:25.230Z,7.00
2018-01-19T05:38:53.263Z,5.00
2018-01-19T05:41:21.360Z,5.85
2018-01-19T05:43:49.431Z,5.32
2018-01-19T05:46:17.466Z,5.28
2018-01-19T05:48:45.490Z,6.22
2018-01-19T05:51:14.287Z,4.90
2018-01-19T05:53:43.107Z,5.22
2018-01-19T05:56:11.169Z,7.60
2018-01-19T05:58:39.187Z,12.75
2018-01-19T06:01:07.228Z,17.12
2018-01-19T06:03:35.279Z,18.27
2018-01-19T06:06:03.355Z,13.10
2018-01-19T06:08:31.380Z,10.02
2018-01-19T06:10:59.423Z,8.85
2018-01-19T06:13:27.476Z,13.57
2018-01-19T06:15:55.515Z,12.88
2018-01-19T06:18:24.335Z,14.32
2018-01-19T06:20:52.384Z,15.75
2018-01-19T06:23:20.432Z,18.67
2018-01-19T06:25:49.253Z,14.68
2018-01-19T06:28:17.292Z,14.43
2018-01-19T06:30:46.105Z,11.38
2018-01-19T06:33:14.134Z,12.02
2018-01-19T06:35:42.157Z,8.82
2018-01-19T06:38:10.191Z,8.85
2018-01-19T06:40:38.997Z,8.25
2018-01-19T06:43:07.021Z,7.87
2018-01-19T06:45:35.044Z,8.68
2018-01-19T06:48:03.088Z,8.50
2018-01-19T06:50:31.887Z,7.03
2018-01-19T06:53:00.701Z,6.90
2018-01-19T06:55:28.717Z,6.47
2018-01-19T06:57:56.744Z,6.85
2018-01-19T07:00:24.761Z,6.25
2018-01-19T07:02:52.893Z,7.22
2018-01-19T07:05:20.933Z,8.30
2018-01-19T07:07:49.757Z,7.95
2018-01-19T07:10:17.777Z,7.05
2018-01-19T07:12:46.575Z,7.62
2018-01-19T07:15:15.372Z,9.77
2018-01-19T07:17:43.391Z,9.18
2018-01-19T07:20:11.589Z,10.82
2018-01-19T07:22:39.657Z,8.32
2018-01-19T07:25:07.719Z,9.98
2018-01-19T07:27:35.748Z,8.85
2018-01-19T07:30:03.860Z,8.43
2018-01-19T07:32:31.912Z,10.00
2018-01-19T07:34:59.940Z,10.63
2018-01-19T07:37:27.976Z,10.20
2018-01-19T07:39:56.097Z,8.65
2018-01-19T07:42:24.229Z,8.35
2018-01-19T07:44:52.329Z,9.10
2018-01-19T07:47:20.356Z,10.25
2018-01-19T07:49:48.364Z,10.35
2018-01-19T07:52:17.157Z,9.48
2018-01-19T07:54:45.182Z,9.52
2018-01-19T07:57:13.245Z,10.00
2018-01-19T07:59:41.323Z,9.93
2018-01-19T08:02:09.349Z,9.45
2018-01-19T08:04:37.378Z,9.73
2018-01-19T08:07:05.438Z,8.48
2018-01-19T08:09:33.483Z,9.82
2018-01-19T08:12:01.505Z,10.75
2018-01-19T08:14:30.289Z,9.30
2018-01-19T08:16:59.103Z,10.70
2018-01-19T08:19:27.145Z,9.95
2018-01-19T08:21:55.979Z,9.60
2018-01-19T08:24:24.028Z,9.70
2018-01-19T08:26:52.077Z,10.13
2018-01-19T08:29:20.868Z,9.18
2018-01-19T08:31:49.678Z,9.00
2018-01-19T08:34:17.700Z,8.60
2018-01-19T08:36:45.764Z,9.88
2018-01-19T08:39:13.820Z,9.23
2018-01-19T08:41:41.872Z,7.93
2018-01-19T08:44:09.894Z,8.85
2018-01-19T08:46:37.916Z,10.90
2018-01-19T08:49:06.019Z,10.43
2018-01-19T08:51:34.072Z,9.82
2018-01-19T08:54:02.115Z,9.75
2018-01-19T08:56:30.156Z,9.50
2018-01-19T08:58:58.956Z,10.68
2018-01-19T09:01:27.768Z,9.43
2018-01-19T09:03:55.789Z,10.70
2018-01-19T09:06:23.831Z,9.52
2018-01-19T09:08:52.620Z,10.30
2018-01-19T09:11:20.652Z,10.55
2018-01-19T09:13:48.681Z,10.63
2018-01-19T09:16:16.731Z,11.12
2018-01-19T09:18:44.837Z,11.48
2018-01-19T09:21:12.893Z,13.60
2018-01-19T09:23:40.943Z,11.90
2018-01-19T09:26:09.019Z,11.63
2018-01-19T09:28:37.049Z,12.95
2018-01-19T09:31:05.140Z,13.52
2018-01-19T09:33:33.188Z,13.32
2018-01-19T09:36:01.229Z,11.50
2018-01-19T09:38:29.276Z,15.10
2018-01-19T09:40:57.340Z,13.57
2018-01-19T09:43:25.456Z,13.35
2018-01-19T09:45:54.275Z,14.60
2018-01-19T09:48:22.312Z,12.85
2018-01-19T09:50:51.200Z,14.98
2018-01-19T09:53:19.252Z,12.80
2018-01-19T09:55:47.292Z,14.00
2018-01-19T09:58:15.360Z,12.25
2018-01-19T10:00:43.429Z,12.90
2018-01-19T10:03:11.473Z,13.10
2018-01-19T10:05:39.492Z,13.60
2018-01-19T10:08:07.539Z,11.10
2018-01-19T10:10:35.595Z,12.27
2018-01-19T10:13:03.651Z,10.50
2018-01-19T10:15:32.441Z,9.80
2018-01-19T10:18:00.488Z,10.75
2018-01-19T10:20:28.523Z,10.27
2018-01-19T10:22:56.576Z,10.35
2018-01-19T10:25:24.639Z,10.30
2018-01-19T10:27:52.668Z,10.93
2018-01-19T10:30:21.508Z,9.60
2018-01-19T10:32:49.548Z,10.05
2018-01-19T10:35:18.354Z,10.30
2018-01-19T10:37:46.411Z,11.40
2018-01-19T10:40:15.218Z,14.30
2018-01-19T10:42:43.244Z,13.57
2018-01-19T10:45:11.293Z,15.35
2018-01-19T10:47:39.349Z,16.85
2018-01-19T10:50:07.404Z,17.20
2018-01-19T10:52:35.536Z,17.37
2018-01-19T10:55:04.420Z,17.70
2018-01-19T10:57:32.471Z,16.80
2018-01-19T11:00:00.540Z,16.77
2018-01-19T11:02:28.574Z,16.30
2018-01-19T11:04:56.601Z,16.27
2018-01-19T11:07:24.641Z,17.05
2018-01-19T11:09:52.677Z,17.52
2018-01-19T11:12:20.715Z,17.05
2018-01-19T11:14:48.748Z,20.30
2018-01-19T11:17:16.792Z,17.90
2018-01-19T11:19:44.904Z,18.17
2018-01-19T11:22:12.964Z,23.12
2018-01-19T11:24:41.009Z,20.20
2018-01-19T11:27:09.076Z,16.95
2018-01-19T11:29:37.117Z,15.75
2018-01-19T11:32:05.936Z,16.73
2018-01-19T11:34:34.012Z,14.70
2018-01-19T11:37:02.057Z,14.90
2018-01-19T11:39:30.889Z,15.38
2018-01-19T11:41:58.936Z,13.55
2018-01-19T11:44:26.981Z,15.75
2018-01-19T11:46:55.821Z,15.30
2018-01-19T11:49:23.884Z,14.60
2018-01-19T11:51:51.934Z,12.73
2018-01-19T11:54:19.995Z,13.75
2018-01-19T11:56:48.084Z,13.80
2018-01-19T11:59:16.212Z,14.10
2018-01-19T12:01:44.382Z,14.53
2018-01-19T12:04:12.408Z,13.20
2018-01-19T12:06:40.480Z,13.37
2018-01-19T12:09:08.545Z,13.93
2018-01-19T12:11:36.603Z,14.10
2018-01-19T12:14:04.687Z,14.70
2018-01-19T12:16:32.748Z,12.70
2018-01-19T12:19:00.864Z,13.20
2018-01-19T12:21:28.915Z,15.03
2018-01-19T12:23:57.010Z,12.90
2018-01-19T12:26:25.075Z,14.67
2018-01-19T12:28:53.903Z,15.17
2018-01-19T12:31:22.764Z,14.20
2018-01-19T12:33:51.063Z,13.80
2018-01-19T12:36:19.872Z,14.10
2018-01-19T12:38:47.916Z,14.97
2018-01-19T12:41:16.752Z,15.87
2018-01-19T12:43:44.811Z,14.73
2018-01-19T12:46:12.880Z,17.27
2018-01-19T12:48:40.947Z,14.77
2018-01-19T12:51:09.007Z,15.60
2018-01-19T12:53:37.013Z,16.67
2018-01-19T12:56:05.030Z,14.80
2018-01-19T12:58:33.830Z,16.33
2018-01-19T13:01:02.662Z,14.83
2018-01-19T13:03:30.810Z,15.43
2018-01-19T13:05:58.858Z,18.67
2018-01-19T13:08:27.643Z,19.67
2018-01-19T13:10:56.466Z,20.63
2018-01-19T13:13:24.597Z,36.87
2018-01-19T13:15:52.636Z,35.70
2018-01-19T13:18:20.659Z,24.60
2018-01-19T13:20:48.685Z,32.40
2018-01-19T13:23:16.723Z,27.20
2018-01-19T13:25:44.739Z,49.87
2018-01-19T13:28:12.762Z,30.93
2018-01-19T13:30:40.799Z,23.97
2018-01-19T13:33:09.601Z,25.93
2018-01-19T13:35:37.627Z,19.53
2018-01-19T13:38:05.654Z,23.70
2018-01-19T13:40:33.685Z,20.30
2018-01-19T13:43:01.705Z,16.97
2018-01-19T13:45:29.747Z,18.80
2018-01-19T13:47:57.782Z,16.90
2018-01-19T13:50:25.829Z,19.23
2018-01-19T13:52:53.866Z,18.30
2018-01-19T13:55:21.878Z,16.87
2018-01-19T13:57:49.934Z,17.20
2018-01-19T14:00:17.965Z,18.27
2018-01-19T14:02:46.756Z,18.27
2018-01-19T14:05:15.534Z,17.17
2018-01-19T14:07:44.353Z,18.50
2018-01-19T14:10:12.395Z,17.20
2018-01-19T14:12:41.296Z,16.10
2018-01-19T14:15:09.327Z,17.57
2018-01-19T14:17:37.358Z,17.33
2018-01-19T14:20:05.413Z,17.17
2018-01-19T14:22:33.426Z,16.90
2018-01-19T14:25:01.453Z,17.80
2018-01-19T14:27:29.500Z,17.53
2018-01-19T14:29:58.306Z,15.60
2018-01-19T14:32:26.374Z,14.93
2018-01-19T14:34:55.174Z,15.50
2018-01-19T14:37:23.224Z,17.03
2018-01-19T14:39:52.015Z,16.57
2018-01-19T14:42:20.821Z,15.93
2018-01-19T14:44:48.864Z,15.30
2018-01-19T14:47:17.659Z,15.03
2018-01-19T14:49:46.466Z,15.70
2018-01-19T14:52:14.489Z,15.30
2018-01-19T14:54:42.515Z,15.63
2018-01-19T14:57:10.585Z,15.23
2018-01-19T14:59:38.640Z,15.67
2018-01-19T15:02:06.701Z,16.13
2018-01-19T15:04:35.529Z,13.93
2018-01-19T15:07:03.679Z,13.90
2018-01-19T15:09:31.837Z,14.73
2018-01-19T15:12:00.644Z,14.57
2018-01-19T15:14:28.667Z,14.47
2018-01-19T15:16:57.117Z,16.93
2018-01-19T15:19:25.164Z,15.00
2018-01-19T15:21:55.707Z,18.03
2018-01-19T15:24:23.735Z,15.90
2018-01-19T15:26:52.524Z,16.43
2018-01-19T15:29:21.321Z,17.00
2018-01-19T15:31:50.120Z,16.50
2018-01-19T15:34:18.147Z,17.77
2018-01-19T15:36:46.236Z,17.60
2018-01-19T15:39:14.414Z,16.10
2018-01-19T15:41:43.216Z,17.87
2018-01-19T15:44:12.017Z,16.87
2018-01-19T15:46:40.070Z,18.30
2018-01-19T15:49:09.253Z,15.90
2018-01-19T15:51:37.567Z,16.97
2018-01-19T15:54:05.887Z,16.03
2018-01-19T15:56:34.388Z,19.00
2018-01-19T15:59:02.813Z,17.07
2018-01-19T16:01:31.137Z,18.80
2018-01-19T16:03:59.464Z,16.67
2018-01-19T16:06:27.825Z,18.00
2018-01-19T16:08:56.994Z,18.33
2018-01-19T16:11:25.382Z,18.93
2018-01-19T16:13:53.672Z,19.07
2018-01-19T16:16:22.180Z,17.60
2018-01-19T16:18:51.110Z,17.50
2018-01-19T16:21:19.450Z,18.53
2018-01-19T16:23:47.815Z,17.70
2018-01-19T16:26:16.192Z,19.37
2018-01-19T16:28:44.493Z,19.87
2018-01-19T16:31:12.826Z,19.40
2018-01-19T16:33:41.153Z,19.37
2018-01-19T16:36:10.213Z,19.27
2018-01-19T16:38:38.480Z,18.53
2018-01-19T16:41:06.554Z,19.17
2018-01-19T16:43:34.676Z,19.20
2018-01-19T16:46:02.889Z,19.47
2018-01-19T16:48:31.696Z,18.93
2018-01-19T16:50:59.711Z,21.67
2018-01-19T16:53:27.748Z,18.63
2018-01-19T16:55:55.781Z,19.93
2018-01-19T16:58:24.593Z,19.77
2018-01-19T17:00:52.639Z,21.03
2018-01-19T17:03:21.450Z,18.87
2018-01-19T17:05:49.489Z,21.13
2018-01-19T17:08:17.538Z,20.90
2018-01-19T17:10:45.571Z,21.77
2018-01-19T17:13:13.630Z,23.50
2018-01-19T17:15:41.657Z,19.30
2018-01-19T17:18:09.695Z,21.03
2018-01-19T17:20:37.802Z,20.10
2018-01-19T17:23:05.838Z,22.30
2018-01-19T17:25:33.875Z,21.97
2018-01-19T17:28:02.686Z,22.00
2018-01-19T17:30:30.720Z,21.80
2018-01-19T17:32:59.539Z,23.00
2018-01-19T17:35:27.564Z,24.60
2018-01-19T17:37:55.648Z,26.00
2018-01-19T17:40:24.505Z,26.03
2018-01-19T17:42:52.784Z,25.10
2018-01-19T17:45:21.890Z,25.80
2018-01-19T17:47:51.040Z,25.73
2018-01-19T17:50:19.481Z,24.40
2018-01-19T17:52:48.370Z,25.23
2018-01-19T17:55:17.283Z,23.60
2018-01-19T17:57:45.345Z,24.87
2018-01-19T18:00:14.305Z,22.67
2018-01-19T18:02:42.367Z,22.30
2018-01-19T18:05:10.652Z,22.93
2018-01-19T18:07:39.919Z,22.17
2018-01-19T18:10:08.311Z,21.37
2018-01-19T18:12:37.402Z,23.90
2018-01-19T18:15:06.130Z,22.40
2018-01-19T18:17:34.213Z,24.10
2018-01-19T18:20:03.386Z,24.40
2018-01-19T18:22:31.438Z,21.60
2018-01-19T18:24:59.472Z,22.07
2018-01-19T18:27:27.479Z,22.53
2018-01-19T18:29:55.529Z,21.52
2018-01-19T18:32:23.604Z,19.60
2018-01-19T18:34:51.668Z,21.50
2018-01-19T18:37:20.142Z,22.07
2018-01-19T18:39:48.179Z,21.93
2018-01-19T18:42:17.006Z,22.10
2018-01-19T18:44:45.070Z,22.37
2018-01-19T18:47:13.130Z,21.75
2018-01-19T18:49:41.165Z,21.15
2018-01-19T18:52:09.213Z,21.70
2018-01-19T18:54:37.265Z,20.70
2018-01-19T18:57:05.309Z,19.55
2018-01-19T18:59:33.344Z,22.10
2018-01-19T19:02:01.461Z,22.02
2018-01-19T19:04:29.496Z,20.90
2018-01-19T19:06:57.524Z,19.65
2018-01-19T19:09:25.571Z,21.15
2018-01-19T19:11:53.633Z,21.27
2018-01-19T19:14:21.657Z,19.17
2018-01-19T19:16:49.713Z,21.17
2018-01-19T19:19:17.751Z,20.60
2018-01-19T19:21:45.810Z,20.77
2018-01-19T19:24:14.622Z,19.92
2018-01-19T19:26:42.730Z,19.65
2018-01-19T19:29:10.796Z,19.65
2018-01-19T19:31:38.839Z,21.55
2018-01-19T19:34:07.356Z,20.75
2018-01-19T19:36:35.409Z,19.92
2018-01-19T19:39:03.551Z,20.35
2018-01-19T19:41:31.585Z,25.40
2018-01-19T19:44:00.653Z,25.20
2018-01-19T19:46:28.702Z,24.10
2018-01-19T19:48:56.740Z,22.83
2018-01-19T19:51:25.544Z,21.42
2018-01-19T19:53:53.577Z,21.65
2018-01-19T19:56:21.601Z,19.45
2018-01-19T19:58:49.704Z,19.97
2018-01-19T20:01:17.732Z,21.83
2018-01-19T20:03:45.756Z,20.80
2018-01-19T20:06:13.815Z,21.10
2018-01-19T20:08:41.849Z,20.02
2018-01-19T20:11:09.949Z,20.25
2018-01-19T20:13:38.000Z,21.52
2018-01-19T20:16:06.233Z,18.58
2018-01-19T20:18:35.354Z,19.65
2018-01-19T20:21:03.729Z,18.77
2018-01-19T20:23:32.064Z,18.67
2018-01-19T20:26:00.486Z,18.42
2018-01-19T20:28:28.841Z,19.02
2018-01-19T20:30:57.845Z,18.05
2018-01-19T20:33:25.884Z,18.87
2018-01-19T20:35:53.931Z,19.65
2018-01-19T20:38:21.975Z,17.55
2018-01-19T20:40:50.018Z,18.02
2018-01-19T20:43:18.838Z,18.20
2018-01-19T20:45:46.915Z,18.15
2018-01-19T20:48:14.956Z,17.27
2018-01-19T20:50:43.765Z,18.40
2018-01-19T20:53:11.804Z,17.60
2018-01-19T20:55:40.619Z,19.40
2018-01-19T20:58:08.664Z,17.20
2018-01-19T21:00:37.486Z,18.92
2018-01-19T21:03:05.544Z,15.82
2018-01-19T21:05:33.574Z,17.45
2018-01-19T21:08:01.608Z,16.33
2018-01-19T21:10:29.656Z,16.67
2018-01-19T21:12:57.710Z,14.70
2018-01-19T21:15:26.516Z,16.45
2018-01-19T21:17:54.549Z,15.43
2018-01-19T21:20:22.572Z,16.48
2018-01-19T21:22:50.595Z,15.82
2018-01-19T21:25:18.616Z,14.85
2018-01-19T21:27:46.643Z,14.87
2018-01-19T21:30:15.439Z,15.43
2018-01-19T21:32:44.246Z,15.32
2018-01-19T21:35:12.264Z,15.65
2018-01-19T21:37:40.289Z,15.48
2018-01-19T21:40:08.309Z,17.60
2018-01-19T21:42:36.384Z,16.73
2018-01-19T21:45:04.428Z,16.42
2018-01-19T21:47:32.452Z,15.88
2018-01-19T21:50:01.233Z,16.85
2018-01-19T21:52:30.042Z,14.85
2018-01-19T21:54:58.079Z,14.95
2018-01-19T21:57:26.099Z,16.05
2018-01-19T21:59:54.127Z,16.02
2018-01-19T22:02:22.907Z,13.65
2018-01-19T22:04:50.920Z,15.30
2018-01-19T22:07:18.923Z,15.23
2018-01-19T22:09:46.960Z,15.68
2018-01-19T22:12:14.977Z,13.57
2018-01-19T22:14:43.016Z,13.00
2018-01-19T22:17:11.047Z,13.35
2018-01-19T22:19:39.848Z,13.30
2018-01-19T22:22:07.860Z,12.40
2018-01-19T22:24:35.914Z,12.77
2018-01-19T22:27:03.931Z,12.80
2018-01-19T22:29:32.721Z,14.05
2018-01-19T22:32:01.500Z,13.50
2018-01-19T22:34:29.590Z,13.70
2018-01-19T22:36:58.446Z,14.65
2018-01-19T22:39:26.544Z,12.82
2018-01-19T22:41:55.436Z,12.48
2018-01-19T22:44:24.225Z,12.90
2018-01-19T22:46:53.007Z,11.88
2018-01-19T22:49:21.807Z,12.65
2018-01-19T22:51:50.592Z,12.45
2018-01-19T22:54:19.395Z,11.88
2018-01-19T22:56:47.407Z,13.50
2018-01-19T22:59:15.420Z,10.35
2018-01-19T23:01:44.211Z,11.80
2018-01-19T23:04:12.991Z,12.52
2018-01-19T23:06:41.796Z,10.52
2018-01-19T23:09:09.850Z,10.40
2018-01-19T23:11:38.645Z,11.40
2018-01-19T23:14:07.448Z,10.80
2018-01-19T23:16:35.477Z,10.80
2018-01-19T23:19:03.532Z,11.45
2018-01-19T23:21:31.548Z,11.80
2018-01-19T23:23:59.574Z,11.05
2018-01-19T23:26:27.598Z,11.10
2018-01-19T23:28:55.634Z,12.48
2018-01-19T23:31:23.656Z,10.57
2018-01-19T23:33:51.690Z,12.25
2018-01-19T23:36:20.488Z,12.23
2018-01-19T23:38:48.568Z,12.50
2018-01-19T23:41:16.576Z,11.77
2018-01-19T23:43:44.591Z,11.95
2018-01-19T23:46:13.417Z,11.70
2018-01-19T23:48:41.462Z,10.95
2018-01-19T23:51:09.534Z,11.30
2018-01-19T23:53:37.551Z,11.10
2018-01-19T23:56:05.575Z,11.12
2018-01-19T23:58:33.601Z,11.50
